sensor_id;sensor_type;location;lat;lon;timestamp;temperature;humidity
15217;DHT22;7711;46.634;14.318;2022-11-15T00:01:08;7.60;99.90
15217;DHT22;7711;46.634;14.318;2022-11-15T00:03:39;7.60;99.90
15217;DHT22;7711;46.634;14.318;2022-11-15T00:06:07;7.60;99.90
15217;DHT22;7711;46.634;14.318;2022-11-15T00:08:43;7.70;99.90
15217;DHT22;7711;46.634;14.318;2022-11-15T00:11:11;7.60;99.90
15217;DHT22;7711;46.634;14.318;2022-11-15T00:13:39;7.60;99.90
15217;DHT22;7711;46.634;14.318;2022-11-15T00:16:08;7.70;99.90
15217;DHT22;7711;46.634;14.318;2022-11-15T00:18:36;7.70;99.90
15217;DHT22;7711;46.634;14.318;2022-11-15T00:21:06;7.70;99.90
15217;DHT22;7711;46.634;14.318;2022-11-15T00:23:34;7.60;99.90
15217;DHT22;7711;46.634;14.318;2022-11-15T00:26:01;7.70;99.90
15217;DHT22;7711;46.634;14.318;2022-11-15T00:28:29;7.60;99.90
15217;DHT22;7711;46.634;14.318;2022-11-15T00:31:02;7.60;99.90
15217;DHT22;7711;46.634;14.318;2022-11-15T00:33:33;7.60;99.90
15217;DHT22;7711;46.634;14.318;2022-11-15T00:36:04;7.60;99.90
15217;DHT22;7711;46.634;14.318;2022-11-15T00:38:32;7.60;99.90
15217;DHT22;7711;46.634;14.318;2022-11-15T00:41:01;7.60;99.90
15217;DHT22;7711;46.634;14.318;2022-11-15T00:43:28;7.60;99.90
15217;DHT22;7711;46.634;14.318;2022-11-15T00:45:56;7.60;99.90
15217;DHT22;7711;46.634;14.318;2022-11-15T00:48:23;7.60;99.90
15217;DHT22;7711;46.634;14.318;2022-11-15T00:50:52;7.70;99.90
15217;DHT22;7711;46.634;14.318;2022-11-15T00:53:20;7.70;99.90
15217;DHT22;7711;46.634;14.318;2022-11-15T00:55:48;7.60;99.90
15217;DHT22;7711;46.634;14.318;2022-11-15T00:58:15;7.60;99.80
15217;DHT22;7711;46.634;14.318;2022-11-15T01:00:43;7.60;99.90
15217;DHT22;7711;46.634;14.318;2022-11-15T01:03:10;7.60;99.90
15217;DHT22;7711;46.634;14.318;2022-11-15T01:05:39;7.60;99.90
15217;DHT22;7711;46.634;14.318;2022-11-15T01:08:14;7.60;99.90
15217;DHT22;7711;46.634;14.318;2022-11-15T01:10:41;7.60;99.90
15217;DHT22;7711;46.634;14.318;2022-11-15T01:13:09;7.60;99.90
15217;DHT22;7711;46.634;14.318;2022-11-15T01:15:39;7.60;99.90
15217;DHT22;7711;46.634;14.318;2022-11-15T01:18:14;7.60;99.90
15217;DHT22;7711;46.634;14.318;2022-11-15T01:20:43;7.50;99.90
15217;DHT22;7711;46.634;14.318;2022-11-15T01:23:14;7.50;99.90
15217;DHT22;7711;46.634;14.318;2022-11-15T01:25:41;7.50;99.90
15217;DHT22;7711;46.634;14.318;2022-11-15T01:28:08;7.40;99.90
15217;DHT22;7711;46.634;14.318;2022-11-15T01:30:36;7.50;99.90
15217;DHT22;7711;46.634;14.318;2022-11-15T01:33:03;7.50;99.90
15217;DHT22;7711;46.634;14.318;2022-11-15T01:35:30;7.50;99.90
15217;DHT22;7711;46.634;14.318;2022-11-15T01:37:57;7.50;99.90
15217;DHT22;7711;46.634;14.318;2022-11-15T01:40:26;7.60;99.90
15217;DHT22;7711;46.634;14.318;2022-11-15T01:42:53;7.60;99.90
15217;DHT22;7711;46.634;14.318;2022-11-15T01:45:21;7.50;99.90
15217;DHT22;7711;46.634;14.318;2022-11-15T01:47:51;7.50;99.90
15217;DHT22;7711;46.634;14.318;2022-11-15T01:50:22;7.50;99.90
15217;DHT22;7711;46.634;14.318;2022-11-15T01:52:50;7.50;99.90
15217;DHT22;7711;46.634;14.318;2022-11-15T01:55:22;7.60;99.90
15217;DHT22;7711;46.634;14.318;2022-11-15T01:57:55;7.60;99.90
15217;DHT22;7711;46.634;14.318;2022-11-15T02:00:23;7.60;99.90
15217;DHT22;7711;46.634;14.318;2022-11-15T02:02:51;7.60;99.90
15217;DHT22;7711;46.634;14.318;2022-11-15T02:05:20;7.60;99.90
15217;DHT22;7711;46.634;14.318;2022-11-15T02:07:48;7.60;99.90
15217;DHT22;7711;46.634;14.318;2022-11-15T02:10:19;7.50;99.90
15217;DHT22;7711;46.634;14.318;2022-11-15T02:12:47;7.50;99.90
15217;DHT22;7711;46.634;14.318;2022-11-15T02:15:16;7.50;99.90
15217;DHT22;7711;46.634;14.318;2022-11-15T02:17:58;7.50;99.90
15217;DHT22;7711;46.634;14.318;2022-11-15T02:20:49;7.50;99.90
15217;DHT22;7711;46.634;14.318;2022-11-15T02:26:40;7.50;99.90
15217;DHT22;7711;46.634;14.318;2022-11-15T02:29:20;7.50;99.90
15217;DHT22;7711;46.634;14.318;2022-11-15T02:32:00;7.50;99.90
15217;DHT22;7711;46.634;14.318;2022-11-15T02:34:38;7.50;99.90
15217;DHT22;7711;46.634;14.318;2022-11-15T02:37:11;7.50;99.90
15217;DHT22;7711;46.634;14.318;2022-11-15T02:39:49;7.60;99.90
15217;DHT22;7711;46.634;14.318;2022-11-15T02:42:21;7.60;99.90
15217;DHT22;7711;46.634;14.318;2022-11-15T02:45:12;7.60;99.90
15217;DHT22;7711;46.634;14.318;2022-11-15T02:47:45;7.60;99.90
15217;DHT22;7711;46.634;14.318;2022-11-15T02:50:18;7.60;99.90
15217;DHT22;7711;46.634;14.318;2022-11-15T02:52:48;7.60;99.00
15217;DHT22;7711;46.634;14.318;2022-11-15T02:55:30;7.50;99.60
15217;DHT22;7711;46.634;14.318;2022-11-15T02:58:18;7.50;99.50
15217;DHT22;7711;46.634;14.318;2022-11-15T03:00:57;7.50;99.90
15217;DHT22;7711;46.634;14.318;2022-11-15T03:03:44;7.50;99.90
15217;DHT22;7711;46.634;14.318;2022-11-15T03:06:23;7.50;99.90
15217;DHT22;7711;46.634;14.318;2022-11-15T03:09:02;7.50;99.90
15217;DHT22;7711;46.634;14.318;2022-11-15T03:11:34;7.50;99.90
15217;DHT22;7711;46.634;14.318;2022-11-15T03:14:10;7.50;99.90
15217;DHT22;7711;46.634;14.318;2022-11-15T03:16:44;7.40;99.90
15217;DHT22;7711;46.634;14.318;2022-11-15T03:19:21;7.40;99.90
15217;DHT22;7711;46.634;14.318;2022-11-15T03:21:51;7.40;99.90
15217;DHT22;7711;46.634;14.318;2022-11-15T03:24:20;7.30;99.90
15217;DHT22;7711;46.634;14.318;2022-11-15T03:26:49;7.10;99.90
15217;DHT22;7711;46.634;14.318;2022-11-15T03:29:22;7.50;99.90
15217;DHT22;7711;46.634;14.318;2022-11-15T03:31:55;7.50;97.70
15217;DHT22;7711;46.634;14.318;2022-11-15T03:34:28;7.40;97.90
15217;DHT22;7711;46.634;14.318;2022-11-15T03:36:56;7.40;99.90
15217;DHT22;7711;46.634;14.318;2022-11-15T03:39:24;7.40;99.90
15217;DHT22;7711;46.634;14.318;2022-11-15T03:42:01;7.50;99.90
15217;DHT22;7711;46.634;14.318;2022-11-15T03:44:37;7.50;99.90
15217;DHT22;7711;46.634;14.318;2022-11-15T03:47:09;7.50;99.90
15217;DHT22;7711;46.634;14.318;2022-11-15T03:49:45;7.50;99.90
15217;DHT22;7711;46.634;14.318;2022-11-15T03:52:17;7.40;99.90
15217;DHT22;7711;46.634;14.318;2022-11-15T03:54:52;7.40;99.90
15217;DHT22;7711;46.634;14.318;2022-11-15T03:57:19;7.40;99.90
15217;DHT22;7711;46.634;14.318;2022-11-15T03:59:46;7.30;99.80
15217;DHT22;7711;46.634;14.318;2022-11-15T04:02:14;7.40;99.90
15217;DHT22;7711;46.634;14.318;2022-11-15T04:04:43;7.30;99.90
15217;DHT22;7711;46.634;14.318;2022-11-15T04:07:12;7.30;99.90
15217;DHT22;7711;46.634;14.318;2022-11-15T04:09:39;7.30;99.90
15217;DHT22;7711;46.634;14.318;2022-11-15T04:12:20;7.30;98.80
15217;DHT22;7711;46.634;14.318;2022-11-15T04:14:58;7.30;99.50
15217;DHT22;7711;46.634;14.318;2022-11-15T04:17:39;7.30;99.90
15217;DHT22;7711;46.634;14.318;2022-11-15T04:20:10;7.30;99.90
15217;DHT22;7711;46.634;14.318;2022-11-15T04:22:58;7.20;98.10
15217;DHT22;7711;46.634;14.318;2022-11-15T04:25:45;7.20;96.80
15217;DHT22;7711;46.634;14.318;2022-11-15T04:28:12;7.20;95.20
15217;DHT22;7711;46.634;14.318;2022-11-15T04:30:41;7.20;95.80
15217;DHT22;7711;46.634;14.318;2022-11-15T04:33:10;7.20;97.70
15217;DHT22;7711;46.634;14.318;2022-11-15T04:35:40;7.20;99.60
15217;DHT22;7711;46.634;14.318;2022-11-15T04:38:08;7.20;99.90
15217;DHT22;7711;46.634;14.318;2022-11-15T04:40:35;7.20;99.90
15217;DHT22;7711;46.634;14.318;2022-11-15T04:43:03;7.30;99.90
15217;DHT22;7711;46.634;14.318;2022-11-15T04:45:30;7.20;99.10
15217;DHT22;7711;46.634;14.318;2022-11-15T04:47:58;7.30;96.50
15217;DHT22;7711;46.634;14.318;2022-11-15T04:50:25;7.30;97.30
15217;DHT22;7711;46.634;14.318;2022-11-15T04:52:54;7.30;97.10
15217;DHT22;7711;46.634;14.318;2022-11-15T04:55:21;7.20;95.70
15217;DHT22;7711;46.634;14.318;2022-11-15T04:57:57;7.30;95.90
15217;DHT22;7711;46.634;14.318;2022-11-15T05:00:27;7.30;95.60
15217;DHT22;7711;46.634;14.318;2022-11-15T05:02:55;7.30;95.10
15217;DHT22;7711;46.634;14.318;2022-11-15T05:05:42;7.30;95.80
15217;DHT22;7711;46.634;14.318;2022-11-15T05:08:10;7.30;96.40
15217;DHT22;7711;46.634;14.318;2022-11-15T05:10:39;7.30;93.20
15217;DHT22;7711;46.634;14.318;2022-11-15T05:13:08;7.30;90.90
15217;DHT22;7711;46.634;14.318;2022-11-15T05:15:35;7.20;89.90
15217;DHT22;7711;46.634;14.318;2022-11-15T05:18:02;7.30;90.00
15217;DHT22;7711;46.634;14.318;2022-11-15T05:20:31;7.30;88.00
15217;DHT22;7711;46.634;14.318;2022-11-15T05:22:58;7.30;88.60
15217;DHT22;7711;46.634;14.318;2022-11-15T05:25:27;7.30;90.60
15217;DHT22;7711;46.634;14.318;2022-11-15T05:27:55;7.30;89.80
15217;DHT22;7711;46.634;14.318;2022-11-15T05:30:22;7.30;79.80
15217;DHT22;7711;46.634;14.318;2022-11-15T05:32:51;7.30;80.00
15217;DHT22;7711;46.634;14.318;2022-11-15T05:35:24;7.30;88.30
15217;DHT22;7711;46.634;14.318;2022-11-15T05:37:54;7.30;90.40
15217;DHT22;7711;46.634;14.318;2022-11-15T05:40:22;7.30;85.90
15217;DHT22;7711;46.634;14.318;2022-11-15T05:42:50;7.30;90.50
15217;DHT22;7711;46.634;14.318;2022-11-15T05:45:18;7.30;87.70
15217;DHT22;7711;46.634;14.318;2022-11-15T05:47:45;7.20;89.40
15217;DHT22;7711;46.634;14.318;2022-11-15T05:50:15;7.20;93.10
15217;DHT22;7711;46.634;14.318;2022-11-15T05:52:47;7.20;96.40
15217;DHT22;7711;46.634;14.318;2022-11-15T05:55:15;7.20;96.70
15217;DHT22;7711;46.634;14.318;2022-11-15T05:57:42;7.10;97.40
15217;DHT22;7711;46.634;14.318;2022-11-15T06:00:14;7.10;98.30
15217;DHT22;7711;46.634;14.318;2022-11-15T06:02:41;7.10;99.90
15217;DHT22;7711;46.634;14.318;2022-11-15T06:05:08;7.10;99.90
15217;DHT22;7711;46.634;14.318;2022-11-15T06:07:35;7.10;99.90
15217;DHT22;7711;46.634;14.318;2022-11-15T06:10:04;7.00;99.90
15217;DHT22;7711;46.634;14.318;2022-11-15T06:12:32;7.00;99.90
15217;DHT22;7711;46.634;14.318;2022-11-15T06:14:59;7.00;99.90
15217;DHT22;7711;46.634;14.318;2022-11-15T06:17:28;7.00;99.90
15217;DHT22;7711;46.634;14.318;2022-11-15T06:19:55;6.90;99.90
15217;DHT22;7711;46.634;14.318;2022-11-15T06:22:23;6.90;99.90
15217;DHT22;7711;46.634;14.318;2022-11-15T06:24:50;6.90;99.90
15217;DHT22;7711;46.634;14.318;2022-11-15T06:27:19;6.80;99.90
15217;DHT22;7711;46.634;14.318;2022-11-15T06:29:46;6.80;99.90
15217;DHT22;7711;46.634;14.318;2022-11-15T06:32:15;6.80;99.90
15217;DHT22;7711;46.634;14.318;2022-11-15T06:34:43;6.70;99.90
15217;DHT22;7711;46.634;14.318;2022-11-15T06:37:12;6.70;99.90
15217;DHT22;7711;46.634;14.318;2022-11-15T06:39:39;6.70;99.90
15217;DHT22;7711;46.634;14.318;2022-11-15T06:42:08;6.70;99.90
15217;DHT22;7711;46.634;14.318;2022-11-15T06:44:35;6.80;99.90
15217;DHT22;7711;46.634;14.318;2022-11-15T06:47:02;6.80;99.90
15217;DHT22;7711;46.634;14.318;2022-11-15T06:49:30;6.80;99.90
15217;DHT22;7711;46.634;14.318;2022-11-15T06:51:58;6.80;99.90
15217;DHT22;7711;46.634;14.318;2022-11-15T06:54:27;6.90;99.90
15217;DHT22;7711;46.634;14.318;2022-11-15T06:56:54;6.90;99.90
15217;DHT22;7711;46.634;14.318;2022-11-15T06:59:21;6.90;99.90
15217;DHT22;7711;46.634;14.318;2022-11-15T07:02:02;7.00;99.90
15217;DHT22;7711;46.634;14.318;2022-11-15T07:04:37;7.00;92.80
15217;DHT22;7711;46.634;14.318;2022-11-15T07:07:05;7.10;79.80
15217;DHT22;7711;46.634;14.318;2022-11-15T07:09:32;7.10;50.00
15217;DHT22;7711;46.634;14.318;2022-11-15T07:11:59;7.20;1.00
15217;DHT22;7711;46.634;14.318;2022-11-15T07:14:26;7.10;1.00
15217;DHT22;7711;46.634;14.318;2022-11-15T07:16:53;7.10;1.00
15217;DHT22;7711;46.634;14.318;2022-11-15T07:19:21;7.10;1.00
15217;DHT22;7711;46.634;14.318;2022-11-15T07:21:48;7.10;1.00
15217;DHT22;7711;46.634;14.318;2022-11-15T07:24:16;7.10;1.00
15217;DHT22;7711;46.634;14.318;2022-11-15T07:26:44;7.00;1.00
15217;DHT22;7711;46.634;14.318;2022-11-15T07:29:11;7.00;1.00
15217;DHT22;7711;46.634;14.318;2022-11-15T07:31:38;7.00;1.00
15217;DHT22;7711;46.634;14.318;2022-11-15T07:34:06;7.00;99.90
15217;DHT22;7711;46.634;14.318;2022-11-15T07:36:34;7.00;1.00
15217;DHT22;7711;46.634;14.318;2022-11-15T07:39:01;7.00;1.00
15217;DHT22;7711;46.634;14.318;2022-11-15T07:41:29;7.00;1.00
15217;DHT22;7711;46.634;14.318;2022-11-15T07:43:56;7.00;1.00
15217;DHT22;7711;46.634;14.318;2022-11-15T07:46:24;7.00;1.00
15217;DHT22;7711;46.634;14.318;2022-11-15T07:48:52;6.90;99.90
15217;DHT22;7711;46.634;14.318;2022-11-15T07:51:20;7.00;75.60
15217;DHT22;7711;46.634;14.318;2022-11-15T07:53:47;6.90;99.90
15217;DHT22;7711;46.634;14.318;2022-11-15T07:56:14;7.00;1.00
15217;DHT22;7711;46.634;14.318;2022-11-15T07:58:45;7.00;99.90
15217;DHT22;7711;46.634;14.318;2022-11-15T08:01:13;7.00;1.00
15217;DHT22;7711;46.634;14.318;2022-11-15T08:03:41;7.00;1.00
15217;DHT22;7711;46.634;14.318;2022-11-15T08:06:08;7.20;99.90
15217;DHT22;7711;46.634;14.318;2022-11-15T08:08:35;7.30;1.00
15217;DHT22;7711;46.634;14.318;2022-11-15T08:11:03;7.40;99.90
15217;DHT22;7711;46.634;14.318;2022-11-15T08:13:30;7.40;1.00
15217;DHT22;7711;46.634;14.318;2022-11-15T08:15:59;7.50;1.00
15217;DHT22;7711;46.634;14.318;2022-11-15T08:18:31;7.60;99.90
15217;DHT22;7711;46.634;14.318;2022-11-15T08:20:59;7.70;1.00
15217;DHT22;7711;46.634;14.318;2022-11-15T08:23:27;7.80;99.90
15217;DHT22;7711;46.634;14.318;2022-11-15T08:26:02;8.00;1.00
15217;DHT22;7711;46.634;14.318;2022-11-15T08:28:30;8.00;99.90
15217;DHT22;7711;46.634;14.318;2022-11-15T08:30:59;8.10;1.00
15217;DHT22;7711;46.634;14.318;2022-11-15T08:33:26;8.00;93.60
15217;DHT22;7711;46.634;14.318;2022-11-15T08:35:56;8.00;1.00
15217;DHT22;7711;46.634;14.318;2022-11-15T08:38:25;8.10;1.00
15217;DHT22;7711;46.634;14.318;2022-11-15T08:41:00;8.10;1.00
15217;DHT22;7711;46.634;14.318;2022-11-15T08:43:28;8.30;1.00
15217;DHT22;7711;46.634;14.318;2022-11-15T08:45:55;8.10;1.00
15217;DHT22;7711;46.634;14.318;2022-11-15T08:48:24;8.10;1.00
15217;DHT22;7711;46.634;14.318;2022-11-15T08:50:53;8.20;46.00
15217;DHT22;7711;46.634;14.318;2022-11-15T08:53:21;8.10;99.90
15217;DHT22;7711;46.634;14.318;2022-11-15T08:55:48;8.10;97.80
15217;DHT22;7711;46.634;14.318;2022-11-15T08:58:15;8.20;99.90
15217;DHT22;7711;46.634;14.318;2022-11-15T09:00:43;8.30;99.90
15217;DHT22;7711;46.634;14.318;2022-11-15T09:03:10;8.30;99.90
15217;DHT22;7711;46.634;14.318;2022-11-15T09:05:38;8.30;99.90
15217;DHT22;7711;46.634;14.318;2022-11-15T09:08:06;8.40;99.90
15217;DHT22;7711;46.634;14.318;2022-11-15T09:10:33;8.40;99.90
15217;DHT22;7711;46.634;14.318;2022-11-15T09:13:00;8.50;99.60
15217;DHT22;7711;46.634;14.318;2022-11-15T09:15:27;8.60;1.00
15217;DHT22;7711;46.634;14.318;2022-11-15T09:17:58;8.60;1.00
15217;DHT22;7711;46.634;14.318;2022-11-15T09:20:25;8.60;1.00
15217;DHT22;7711;46.634;14.318;2022-11-15T09:22:59;8.60;1.00
15217;DHT22;7711;46.634;14.318;2022-11-15T09:25:26;8.70;1.00
15217;DHT22;7711;46.634;14.318;2022-11-15T09:27:53;8.90;1.00
15217;DHT22;7711;46.634;14.318;2022-11-15T09:30:20;8.90;1.00
15217;DHT22;7711;46.634;14.318;2022-11-15T09:32:48;9.00;1.00
15217;DHT22;7711;46.634;14.318;2022-11-15T09:35:15;9.10;99.90
15217;DHT22;7711;46.634;14.318;2022-11-15T09:37:46;9.20;99.90
15217;DHT22;7711;46.634;14.318;2022-11-15T09:40:16;9.20;99.90
15217;DHT22;7711;46.634;14.318;2022-11-15T09:43:14;9.40;99.90
15217;DHT22;7711;46.634;14.318;2022-11-15T09:45:56;9.70;99.90
15217;DHT22;7711;46.634;14.318;2022-11-15T09:48:48;9.90;99.90
15217;DHT22;7711;46.634;14.318;2022-11-15T09:51:25;10.10;99.90
15217;DHT22;7711;46.634;14.318;2022-11-15T09:54:04;10.20;1.00
15217;DHT22;7711;46.634;14.318;2022-11-15T09:56:36;10.10;1.00
15217;DHT22;7711;46.634;14.318;2022-11-15T09:59:20;10.10;1.00
15217;DHT22;7711;46.634;14.318;2022-11-15T10:01:55;10.10;1.00
15217;DHT22;7711;46.634;14.318;2022-11-15T10:04:24;10.00;1.00
15217;DHT22;7711;46.634;14.318;2022-11-15T10:06:57;10.00;1.00
15217;DHT22;7711;46.634;14.318;2022-11-15T10:09:28;10.10;1.00
15217;DHT22;7711;46.634;14.318;2022-11-15T10:12:03;10.10;1.00
15217;DHT22;7711;46.634;14.318;2022-11-15T10:14:31;10.10;1.00
15217;DHT22;7711;46.634;14.318;2022-11-15T10:20:08;10.00;1.00
15217;DHT22;7711;46.634;14.318;2022-11-15T10:22:40;10.10;1.00
15217;DHT22;7711;46.634;14.318;2022-11-15T10:25:16;10.20;1.00
15217;DHT22;7711;46.634;14.318;2022-11-15T10:27:52;10.20;99.90
15217;DHT22;7711;46.634;14.318;2022-11-15T10:30:20;10.30;99.90
15217;DHT22;7711;46.634;14.318;2022-11-15T10:32:48;10.30;99.90
15217;DHT22;7711;46.634;14.318;2022-11-15T10:35:22;10.40;99.90
15217;DHT22;7711;46.634;14.318;2022-11-15T10:37:49;10.30;99.90
15217;DHT22;7711;46.634;14.318;2022-11-15T10:40:20;10.50;99.90
15217;DHT22;7711;46.634;14.318;2022-11-15T10:43:05;10.70;99.90
15217;DHT22;7711;46.634;14.318;2022-11-15T10:45:33;10.70;99.90
15217;DHT22;7711;46.634;14.318;2022-11-15T10:48:23;10.60;99.90
15217;DHT22;7711;46.634;14.318;2022-11-15T10:50:52;10.70;99.90
15217;DHT22;7711;46.634;14.318;2022-11-15T10:53:29;10.80;1.00
15217;DHT22;7711;46.634;14.318;2022-11-15T10:56:00;11.00;1.00
15217;DHT22;7711;46.634;14.318;2022-11-15T10:58:34;11.10;11.90
15217;DHT22;7711;46.634;14.318;2022-11-15T11:01:10;11.20;6.60
15217;DHT22;7711;46.634;14.318;2022-11-15T11:03:39;11.00;19.30
15217;DHT22;7711;46.634;14.318;2022-11-15T11:06:10;11.00;1.00
15217;DHT22;7711;46.634;14.318;2022-11-15T11:08:38;10.80;1.00
15217;DHT22;7711;46.634;14.318;2022-11-15T11:11:07;11.10;1.00
15217;DHT22;7711;46.634;14.318;2022-11-15T11:13:37;11.20;1.00
15217;DHT22;7711;46.634;14.318;2022-11-15T11:19:08;11.30;1.00
15217;DHT22;7711;46.634;14.318;2022-11-15T11:21:46;11.70;1.00
15217;DHT22;7711;46.634;14.318;2022-11-15T11:24:20;11.60;1.00
15217;DHT22;7711;46.634;14.318;2022-11-15T11:27:03;11.50;1.00
15217;DHT22;7711;46.634;14.318;2022-11-15T11:29:49;11.60;1.00
15217;DHT22;7711;46.634;14.318;2022-11-15T11:35:13;11.60;1.00
15217;DHT22;7711;46.634;14.318;2022-11-15T11:37:56;11.50;1.00
15217;DHT22;7711;46.634;14.318;2022-11-15T11:40:30;11.50;1.00
15217;DHT22;7711;46.634;14.318;2022-11-15T11:43:03;11.30;1.00
15217;DHT22;7711;46.634;14.318;2022-11-15T11:46:08;11.60;1.00
15217;DHT22;7711;46.634;14.318;2022-11-15T11:48:42;11.60;1.00
15217;DHT22;7711;46.634;14.318;2022-11-15T12:01:30;12.20;1.00
15217;DHT22;7711;46.634;14.318;2022-11-15T12:04:03;12.10;1.00
15217;DHT22;7711;46.634;14.318;2022-11-15T12:06:46;12.20;1.00
15217;DHT22;7711;46.634;14.318;2022-11-15T12:09:17;12.40;1.00
15217;DHT22;7711;46.634;14.318;2022-11-15T12:11:50;12.50;1.00
15217;DHT22;7711;46.634;14.318;2022-11-15T12:14:27;12.20;1.00
15217;DHT22;7711;46.634;14.318;2022-11-15T12:16:57;11.80;1.00
15217;DHT22;7711;46.634;14.318;2022-11-15T12:19:25;11.80;1.00
15217;DHT22;7711;46.634;14.318;2022-11-15T12:21:58;11.60;1.00
15217;DHT22;7711;46.634;14.318;2022-11-15T12:24:29;11.60;1.00
15217;DHT22;7711;46.634;14.318;2022-11-15T12:27:01;11.60;1.00
15217;DHT22;7711;46.634;14.318;2022-11-15T12:29:34;11.70;1.00
15217;DHT22;7711;46.634;14.318;2022-11-15T12:32:11;11.90;1.00
15217;DHT22;7711;46.634;14.318;2022-11-15T12:34:44;11.90;1.00
15217;DHT22;7711;46.634;14.318;2022-11-15T12:37:44;12.10;1.00
15217;DHT22;7711;46.634;14.318;2022-11-15T12:40:36;11.90;1.00
15217;DHT22;7711;46.634;14.318;2022-11-15T12:45:50;12.30;1.00
15217;DHT22;7711;46.634;14.318;2022-11-15T12:54:53;14.10;99.90
15217;DHT22;7711;46.634;14.318;2022-11-15T12:57:29;14.90;99.90
15217;DHT22;7711;46.634;14.318;2022-11-15T12:59:58;16.50;99.90
15217;DHT22;7711;46.634;14.318;2022-11-15T13:02:29;17.00;99.90
15217;DHT22;7711;46.634;14.318;2022-11-15T13:07:58;18.00;99.90
15217;DHT22;7711;46.634;14.318;2022-11-15T13:10:31;18.70;99.90
15217;DHT22;7711;46.634;14.318;2022-11-15T13:13:00;18.30;99.90
15217;DHT22;7711;46.634;14.318;2022-11-15T13:15:45;18.10;99.90
15217;DHT22;7711;46.634;14.318;2022-11-15T13:18:31;17.30;99.90
15217;DHT22;7711;46.634;14.318;2022-11-15T13:20:59;17.10;99.90
15217;DHT22;7711;46.634;14.318;2022-11-15T13:23:26;17.40;99.90
15217;DHT22;7711;46.634;14.318;2022-11-15T13:26:08;17.40;99.90
15217;DHT22;7711;46.634;14.318;2022-11-15T13:28:39;17.90;99.90
15217;DHT22;7711;46.634;14.318;2022-11-15T13:31:33;18.60;99.90
15217;DHT22;7711;46.634;14.318;2022-11-15T13:34:12;18.80;99.90
15217;DHT22;7711;46.634;14.318;2022-11-15T13:36:41;19.00;99.90
15217;DHT22;7711;46.634;14.318;2022-11-15T13:39:14;18.50;99.90
15217;DHT22;7711;46.634;14.318;2022-11-15T13:41:52;18.80;99.90
15217;DHT22;7711;46.634;14.318;2022-11-15T13:44:20;19.00;99.90
15217;DHT22;7711;46.634;14.318;2022-11-15T13:46:48;19.30;99.90
15217;DHT22;7711;46.634;14.318;2022-11-15T13:49:15;18.50;99.90
15217;DHT22;7711;46.634;14.318;2022-11-15T13:51:45;18.10;99.90
15217;DHT22;7711;46.634;14.318;2022-11-15T13:54:18;17.80;99.90
15217;DHT22;7711;46.634;14.318;2022-11-15T13:56:49;18.00;99.90
15217;DHT22;7711;46.634;14.318;2022-11-15T13:59:25;18.40;99.90
15217;DHT22;7711;46.634;14.318;2022-11-15T14:01:54;18.60;99.90
15217;DHT22;7711;46.634;14.318;2022-11-15T14:04:23;18.90;99.90
15217;DHT22;7711;46.634;14.318;2022-11-15T14:06:54;18.40;99.90
15217;DHT22;7711;46.634;14.318;2022-11-15T14:09:35;18.00;99.90
15217;DHT22;7711;46.634;14.318;2022-11-15T14:12:26;17.90;99.90
15217;DHT22;7711;46.634;14.318;2022-11-15T14:14:55;17.40;99.90
15217;DHT22;7711;46.634;14.318;2022-11-15T14:17:34;17.70;99.90
15217;DHT22;7711;46.634;14.318;2022-11-15T14:20:18;17.40;99.90
15217;DHT22;7711;46.634;14.318;2022-11-15T14:22:52;16.90;99.90
15217;DHT22;7711;46.634;14.318;2022-11-15T14:25:20;17.10;99.90
15217;DHT22;7711;46.634;14.318;2022-11-15T14:28:10;16.90;99.90
15217;DHT22;7711;46.634;14.318;2022-11-15T14:30:40;16.90;99.90
15217;DHT22;7711;46.634;14.318;2022-11-15T14:33:20;16.60;99.90
15217;DHT22;7711;46.634;14.318;2022-11-15T14:35:47;16.20;99.90
15217;DHT22;7711;46.634;14.318;2022-11-15T14:38:14;16.60;99.90
15217;DHT22;7711;46.634;14.318;2022-11-15T14:40:42;16.10;99.90
15217;DHT22;7711;46.634;14.318;2022-11-15T14:43:10;15.50;99.90
15217;DHT22;7711;46.634;14.318;2022-11-15T14:45:39;14.80;99.90
15217;DHT22;7711;46.634;14.318;2022-11-15T14:48:07;14.20;99.90
15217;DHT22;7711;46.634;14.318;2022-11-15T14:50:34;13.60;99.90
15217;DHT22;7711;46.634;14.318;2022-11-15T14:53:02;13.10;99.90
15217;DHT22;7711;46.634;14.318;2022-11-15T14:55:30;12.60;99.90
15217;DHT22;7711;46.634;14.318;2022-11-15T14:58:01;12.30;99.90
15217;DHT22;7711;46.634;14.318;2022-11-15T15:00:29;12.00;99.90
15217;DHT22;7711;46.634;14.318;2022-11-15T15:02:58;11.80;99.90
15217;DHT22;7711;46.634;14.318;2022-11-15T15:05:29;11.40;99.90
15217;DHT22;7711;46.634;14.318;2022-11-15T15:07:57;11.20;99.90
15217;DHT22;7711;46.634;14.318;2022-11-15T15:10:25;11.00;99.90
15217;DHT22;7711;46.634;14.318;2022-11-15T15:12:52;10.80;99.90
15217;DHT22;7711;46.634;14.318;2022-11-15T15:15:26;10.70;99.90
15217;DHT22;7711;46.634;14.318;2022-11-15T15:17:53;10.60;99.90
15217;DHT22;7711;46.634;14.318;2022-11-15T15:20:21;10.40;99.90
15217;DHT22;7711;46.634;14.318;2022-11-15T15:22:48;10.30;99.90
15217;DHT22;7711;46.634;14.318;2022-11-15T15:25:23;10.10;99.90
15217;DHT22;7711;46.634;14.318;2022-11-15T15:27:53;10.00;99.90
15217;DHT22;7711;46.634;14.318;2022-11-15T15:30:20;9.80;99.90
15217;DHT22;7711;46.634;14.318;2022-11-15T15:32:48;9.60;99.90
15217;DHT22;7711;46.634;14.318;2022-11-15T15:35:16;9.50;99.90
15217;DHT22;7711;46.634;14.318;2022-11-15T15:37:46;9.40;99.90
15217;DHT22;7711;46.634;14.318;2022-11-15T15:40:15;9.30;1.00
15217;DHT22;7711;46.634;14.318;2022-11-15T15:42:43;9.20;1.00
15217;DHT22;7711;46.634;14.318;2022-11-15T15:45:10;9.10;1.00
15217;DHT22;7711;46.634;14.318;2022-11-15T15:47:38;9.00;1.00
15217;DHT22;7711;46.634;14.318;2022-11-15T15:50:16;8.90;1.00
15217;DHT22;7711;46.634;14.318;2022-11-15T15:52:45;8.80;1.00
15217;DHT22;7711;46.634;14.318;2022-11-15T15:55:12;8.70;1.00
15217;DHT22;7711;46.634;14.318;2022-11-15T15:57:39;8.90;1.00
15217;DHT22;7711;46.634;14.318;2022-11-15T16:00:08;8.80;1.00
15217;DHT22;7711;46.634;14.318;2022-11-15T16:02:36;8.70;1.00
15217;DHT22;7711;46.634;14.318;2022-11-15T16:05:03;8.50;1.00
15217;DHT22;7711;46.634;14.318;2022-11-15T16:07:30;8.40;98.60
15217;DHT22;7711;46.634;14.318;2022-11-15T16:09:59;8.20;99.90
15217;DHT22;7711;46.634;14.318;2022-11-15T16:12:30;8.20;99.90
15217;DHT22;7711;46.634;14.318;2022-11-15T16:14:57;8.10;1.00
15217;DHT22;7711;46.634;14.318;2022-11-15T16:17:28;7.90;99.90
15217;DHT22;7711;46.634;14.318;2022-11-15T16:19:57;7.90;99.90
15217;DHT22;7711;46.634;14.318;2022-11-15T16:22:25;7.90;1.00
15217;DHT22;7711;46.634;14.318;2022-11-15T16:24:52;7.80;1.00
15217;DHT22;7711;46.634;14.318;2022-11-15T16:27:21;7.80;70.90
15217;DHT22;7711;46.634;14.318;2022-11-15T16:29:48;7.70;1.00
15217;DHT22;7711;46.634;14.318;2022-11-15T16:32:16;7.70;1.00
15217;DHT22;7711;46.634;14.318;2022-11-15T16:34:43;7.70;1.00
15217;DHT22;7711;46.634;14.318;2022-11-15T16:37:21;7.60;99.90
15217;DHT22;7711;46.634;14.318;2022-11-15T16:39:48;7.50;6.70
15217;DHT22;7711;46.634;14.318;2022-11-15T16:42:16;7.50;1.00
15217;DHT22;7711;46.634;14.318;2022-11-15T16:44:44;7.30;99.90